sensor_id;sensor_type;location;lat;lon;timestamp;P1;durP1;ratioP1;P2;durP2;ratioP2
49730;SDS011;35622;52.008;5.426;2023-07-16T00:02:04;4.10;;;1.60;;
49730;SDS011;35622;52.008;5.426;2023-07-16T00:04:31;6.88;;;1.90;;
49730;SDS011;35622;52.008;5.426;2023-07-16T00:06:57;5.07;;;1.90;;
49730;SDS011;35622;52.008;5.426;2023-07-16T00:09:24;6.70;;;2.03;;
49730;SDS011;35622;52.008;5.426;2023-07-16T00:11:49;5.30;;;2.00;;
49730;SDS011;35622;52.008;5.426;2023-07-16T00:14:15;8.55;;;2.13;;
49730;SDS011;35622;52.008;5.426;2023-07-16T00:16:40;7.10;;;1.92;;
49730;SDS011;35622;52.008;5.426;2023-07-16T00:19:06;5.03;;;1.73;;
49730;SDS011;35622;52.008;5.426;2023-07-16T00:21:32;8.07;;;1.98;;
49730;SDS011;35622;52.008;5.426;2023-07-16T00:23:57;6.22;;;1.70;;
49730;SDS011;35622;52.008;5.426;2023-07-16T00:26:23;4.93;;;1.80;;
49730;SDS011;35622;52.008;5.426;2023-07-16T00:28:49;3.97;;;1.65;;
49730;SDS011;35622;52.008;5.426;2023-07-16T00:31:14;7.50;;;1.92;;
49730;SDS011;35622;52.008;5.426;2023-07-16T00:33:40;7.47;;;2.03;;
49730;SDS011;35622;52.008;5.426;2023-07-16T00:36:05;6.88;;;2.35;;
49730;SDS011;35622;52.008;5.426;2023-07-16T00:38:31;9.40;;;2.40;;
49730;SDS011;35622;52.008;5.426;2023-07-16T00:40:56;5.80;;;2.05;;
49730;SDS011;35622;52.008;5.426;2023-07-16T00:43:22;5.38;;;1.98;;
49730;SDS011;35622;52.008;5.426;2023-07-16T00:45:48;5.28;;;1.90;;
49730;SDS011;35622;52.008;5.426;2023-07-16T00:48:14;4.85;;;1.90;;
49730;SDS011;35622;52.008;5.426;2023-07-16T00:50:40;5.85;;;1.90;;
49730;SDS011;35622;52.008;5.426;2023-07-16T00:53:06;6.43;;;1.90;;
49730;SDS011;35622;52.008;5.426;2023-07-16T00:55:32;9.02;;;2.30;;
49730;SDS011;35622;52.008;5.426;2023-07-16T00:58:00;8.52;;;2.10;;
49730;SDS011;35622;52.008;5.426;2023-07-16T01:00:30;8.43;;;2.20;;
49730;SDS011;35622;52.008;5.426;2023-07-16T01:02:56;5.88;;;1.58;;
49730;SDS011;35622;52.008;5.426;2023-07-16T01:05:22;3.97;;;1.73;;
49730;SDS011;35622;52.008;5.426;2023-07-16T01:07:57;8.60;;;2.05;;
49730;SDS011;35622;52.008;5.426;2023-07-16T01:10:26;6.07;;;2.22;;
49730;SDS011;35622;52.008;5.426;2023-07-16T01:12:54;8.07;;;2.25;;
49730;SDS011;35622;52.008;5.426;2023-07-16T01:15:21;6.68;;;1.80;;
49730;SDS011;35622;52.008;5.426;2023-07-16T01:17:47;6.30;;;2.20;;
49730;SDS011;35622;52.008;5.426;2023-07-16T01:20:12;6.15;;;2.25;;
49730;SDS011;35622;52.008;5.426;2023-07-16T01:28:11;7.55;;;2.22;;
49730;SDS011;35622;52.008;5.426;2023-07-16T01:30:42;6.85;;;2.10;;
49730;SDS011;35622;52.008;5.426;2023-07-16T01:33:09;7.10;;;2.40;;
49730;SDS011;35622;52.008;5.426;2023-07-16T01:35:37;4.53;;;2.03;;
49730;SDS011;35622;52.008;5.426;2023-07-16T01:38:04;8.15;;;2.40;;
49730;SDS011;35622;52.008;5.426;2023-07-16T01:40:30;5.35;;;2.60;;
49730;SDS011;35622;52.008;5.426;2023-07-16T01:42:56;9.82;;;2.97;;
49730;SDS011;35622;52.008;5.426;2023-07-16T01:45:22;6.65;;;2.08;;
49730;SDS011;35622;52.008;5.426;2023-07-16T01:50:19;5.93;;;2.63;;
49730;SDS011;35622;52.008;5.426;2023-07-16T01:52:45;5.53;;;2.42;;
49730;SDS011;35622;52.008;5.426;2023-07-16T01:55:11;9.35;;;2.13;;
49730;SDS011;35622;52.008;5.426;2023-07-16T01:57:36;8.25;;;2.38;;
49730;SDS011;35622;52.008;5.426;2023-07-16T02:00:02;5.20;;;2.33;;
49730;SDS011;35622;52.008;5.426;2023-07-16T02:02:28;8.55;;;2.40;;
49730;SDS011;35622;52.008;5.426;2023-07-16T02:04:53;5.50;;;2.70;;
49730;SDS011;35622;52.008;5.426;2023-07-16T02:07:19;8.32;;;2.85;;
49730;SDS011;35622;52.008;5.426;2023-07-16T02:09:44;7.05;;;2.47;;
49730;SDS011;35622;52.008;5.426;2023-07-16T02:12:10;9.50;;;2.58;;
49730;SDS011;35622;52.008;5.426;2023-07-16T02:14:35;7.32;;;2.88;;
49730;SDS011;35622;52.008;5.426;2023-07-16T02:17:01;6.60;;;2.55;;
49730;SDS011;35622;52.008;5.426;2023-07-16T02:19:26;6.82;;;2.58;;
49730;SDS011;35622;52.008;5.426;2023-07-16T02:21:52;9.63;;;3.40;;
49730;SDS011;35622;52.008;5.426;2023-07-16T02:24:17;6.28;;;2.53;;
49730;SDS011;35622;52.008;5.426;2023-07-16T02:26:43;9.80;;;3.00;;
49730;SDS011;35622;52.008;5.426;2023-07-16T02:29:09;9.82;;;3.03;;
49730;SDS011;35622;52.008;5.426;2023-07-16T02:31:35;11.52;;;3.60;;
49730;SDS011;35622;52.008;5.426;2023-07-16T02:34:01;15.00;;;3.53;;
49730;SDS011;35622;52.008;5.426;2023-07-16T02:36:27;8.18;;;3.00;;
49730;SDS011;35622;52.008;5.426;2023-07-16T02:38:52;8.70;;;3.10;;
49730;SDS011;35622;52.008;5.426;2023-07-16T02:41:18;7.30;;;3.03;;
49730;SDS011;35622;52.008;5.426;2023-07-16T02:43:45;6.65;;;3.10;;
49730;SDS011;35622;52.008;5.426;2023-07-16T02:46:10;7.35;;;2.72;;
49730;SDS011;35622;52.008;5.426;2023-07-16T02:48:36;9.10;;;3.00;;
49730;SDS011;35622;52.008;5.426;2023-07-16T02:51:01;6.72;;;3.10;;
49730;SDS011;35622;52.008;5.426;2023-07-16T02:53:27;7.95;;;3.80;;
49730;SDS011;35622;52.008;5.426;2023-07-16T02:55:53;5.35;;;3.20;;
49730;SDS011;35622;52.008;5.426;2023-07-16T02:58:18;5.78;;;2.85;;
49730;SDS011;35622;52.008;5.426;2023-07-16T03:00:44;11.18;;;3.35;;
49730;SDS011;35622;52.008;5.426;2023-07-16T03:03:09;6.53;;;2.95;;
49730;SDS011;35622;52.008;5.426;2023-07-16T03:05:35;8.68;;;3.40;;
49730;SDS011;35622;52.008;5.426;2023-07-16T03:08:00;7.97;;;3.38;;
49730;SDS011;35622;52.008;5.426;2023-07-16T03:10:26;9.15;;;3.15;;
49730;SDS011;35622;52.008;5.426;2023-07-16T03:12:52;8.88;;;3.50;;
49730;SDS011;35622;52.008;5.426;2023-07-16T03:15:18;8.70;;;3.15;;
49730;SDS011;35622;52.008;5.426;2023-07-16T03:17:43;8.57;;;2.80;;
49730;SDS011;35622;52.008;5.426;2023-07-16T03:20:09;8.93;;;3.05;;
49730;SDS011;35622;52.008;5.426;2023-07-16T03:22:35;10.15;;;3.45;;
49730;SDS011;35622;52.008;5.426;2023-07-16T03:25:00;8.73;;;3.45;;
49730;SDS011;35622;52.008;5.426;2023-07-16T03:27:27;8.90;;;3.53;;
49730;SDS011;35622;52.008;5.426;2023-07-16T03:29:53;8.10;;;2.90;;
49730;SDS011;35622;52.008;5.426;2023-07-16T03:32:19;7.32;;;2.72;;
49730;SDS011;35622;52.008;5.426;2023-07-16T03:34:44;10.45;;;3.13;;
49730;SDS011;35622;52.008;5.426;2023-07-16T03:37:10;7.95;;;3.00;;
49730;SDS011;35622;52.008;5.426;2023-07-16T03:39:36;8.52;;;2.88;;
49730;SDS011;35622;52.008;5.426;2023-07-16T03:42:01;7.72;;;3.17;;
49730;SDS011;35622;52.008;5.426;2023-07-16T03:44:27;8.00;;;2.70;;
49730;SDS011;35622;52.008;5.426;2023-07-16T03:46:54;7.45;;;3.00;;
49730;SDS011;35622;52.008;5.426;2023-07-16T03:49:19;6.78;;;2.53;;
49730;SDS011;35622;52.008;5.426;2023-07-16T03:51:45;8.50;;;2.90;;
49730;SDS011;35622;52.008;5.426;2023-07-16T03:54:10;8.95;;;3.03;;
49730;SDS011;35622;52.008;5.426;2023-07-16T03:56:36;6.82;;;2.75;;
49730;SDS011;35622;52.008;5.426;2023-07-16T03:59:02;9.75;;;3.35;;
49730;SDS011;35622;52.008;5.426;2023-07-16T04:01:27;11.43;;;3.05;;
49730;SDS011;35622;52.008;5.426;2023-07-16T04:03:53;8.60;;;2.95;;
49730;SDS011;35622;52.008;5.426;2023-07-16T04:06:18;10.43;;;3.08;;
49730;SDS011;35622;52.008;5.426;2023-07-16T04:08:44;7.95;;;2.85;;
49730;SDS011;35622;52.008;5.426;2023-07-16T04:11:09;7.15;;;2.95;;
49730;SDS011;35622;52.008;5.426;2023-07-16T04:13:35;9.52;;;2.97;;
49730;SDS011;35622;52.008;5.426;2023-07-16T04:16:00;6.43;;;3.15;;
49730;SDS011;35622;52.008;5.426;2023-07-16T04:18:26;7.78;;;3.97;;
49730;SDS011;35622;52.008;5.426;2023-07-16T04:20:52;9.55;;;3.50;;
49730;SDS011;35622;52.008;5.426;2023-07-16T04:23:17;7.53;;;3.70;;
49730;SDS011;35622;52.008;5.426;2023-07-16T04:25:43;10.02;;;3.72;;
49730;SDS011;35622;52.008;5.426;2023-07-16T04:28:10;9.45;;;3.67;;
49730;SDS011;35622;52.008;5.426;2023-07-16T04:30:36;6.70;;;3.58;;
49730;SDS011;35622;52.008;5.426;2023-07-16T04:33:02;9.77;;;3.97;;
49730;SDS011;35622;52.008;5.426;2023-07-16T04:35:28;6.78;;;3.65;;
49730;SDS011;35622;52.008;5.426;2023-07-16T04:37:53;10.02;;;3.83;;
49730;SDS011;35622;52.008;5.426;2023-07-16T04:40:19;9.82;;;4.10;;
49730;SDS011;35622;52.008;5.426;2023-07-16T04:42:45;8.60;;;3.80;;
49730;SDS011;35622;52.008;5.426;2023-07-16T04:45:10;10.63;;;3.78;;
49730;SDS011;35622;52.008;5.426;2023-07-16T04:47:36;7.88;;;3.67;;
49730;SDS011;35622;52.008;5.426;2023-07-16T04:50:02;6.85;;;3.40;;
49730;SDS011;35622;52.008;5.426;2023-07-16T04:52:27;9.18;;;3.50;;
49730;SDS011;35622;52.008;5.426;2023-07-16T04:54:53;6.75;;;3.20;;
49730;SDS011;35622;52.008;5.426;2023-07-16T04:57:19;9.48;;;3.55;;
49730;SDS011;35622;52.008;5.426;2023-07-16T04:59:44;5.95;;;3.17;;
49730;SDS011;35622;52.008;5.426;2023-07-16T05:02:10;8.63;;;3.67;;
49730;SDS011;35622;52.008;5.426;2023-07-16T05:04:35;6.40;;;3.45;;
49730;SDS011;35622;52.008;5.426;2023-07-16T05:07:01;8.15;;;3.53;;
49730;SDS011;35622;52.008;5.426;2023-07-16T05:09:27;9.80;;;3.67;;
49730;SDS011;35622;52.008;5.426;2023-07-16T05:11:53;11.23;;;4.35;;
49730;SDS011;35622;52.008;5.426;2023-07-16T05:14:19;7.65;;;4.05;;
49730;SDS011;35622;52.008;5.426;2023-07-16T05:16:45;8.48;;;3.88;;
49730;SDS011;35622;52.008;5.426;2023-07-16T05:19:10;7.18;;;3.65;;
49730;SDS011;35622;52.008;5.426;2023-07-16T05:21:36;9.00;;;4.40;;
49730;SDS011;35622;52.008;5.426;2023-07-16T05:24:01;9.63;;;4.25;;
49730;SDS011;35622;52.008;5.426;2023-07-16T05:26:27;13.02;;;3.95;;
49730;SDS011;35622;52.008;5.426;2023-07-16T05:28:53;11.38;;;4.75;;
49730;SDS011;35622;52.008;5.426;2023-07-16T05:31:18;10.45;;;4.55;;
49730;SDS011;35622;52.008;5.426;2023-07-16T05:33:44;9.02;;;4.15;;
49730;SDS011;35622;52.008;5.426;2023-07-16T05:36:10;8.00;;;3.97;;
49730;SDS011;35622;52.008;5.426;2023-07-16T05:38:35;9.05;;;4.68;;
49730;SDS011;35622;52.008;5.426;2023-07-16T05:41:01;7.80;;;3.92;;
49730;SDS011;35622;52.008;5.426;2023-07-16T05:43:27;12.93;;;4.78;;
49730;SDS011;35622;52.008;5.426;2023-07-16T05:45:53;10.68;;;4.07;;
49730;SDS011;35622;52.008;5.426;2023-07-16T05:48:19;8.93;;;4.65;;
49730;SDS011;35622;52.008;5.426;2023-07-16T05:50:44;10.45;;;4.65;;
49730;SDS011;35622;52.008;5.426;2023-07-16T05:53:10;10.27;;;5.00;;
49730;SDS011;35622;52.008;5.426;2023-07-16T05:55:36;8.52;;;4.05;;
49730;SDS011;35622;52.008;5.426;2023-07-16T05:58:04;11.15;;;4.35;;
49730;SDS011;35622;52.008;5.426;2023-07-16T06:00:29;9.50;;;5.10;;
49730;SDS011;35622;52.008;5.426;2023-07-16T06:02:55;9.55;;;5.10;;
49730;SDS011;35622;52.008;5.426;2023-07-16T06:05:22;8.73;;;4.70;;
49730;SDS011;35622;52.008;5.426;2023-07-16T06:07:49;10.30;;;4.60;;
49730;SDS011;35622;52.008;5.426;2023-07-16T06:10:15;8.73;;;4.35;;
49730;SDS011;35622;52.008;5.426;2023-07-16T06:12:40;10.27;;;4.45;;
49730;SDS011;35622;52.008;5.426;2023-07-16T06:15:06;9.95;;;4.38;;
49730;SDS011;35622;52.008;5.426;2023-07-16T06:17:33;9.77;;;5.18;;
49730;SDS011;35622;52.008;5.426;2023-07-16T06:19:58;12.10;;;5.30;;
49730;SDS011;35622;52.008;5.426;2023-07-16T06:22:24;7.45;;;4.72;;
49730;SDS011;35622;52.008;5.426;2023-07-16T06:24:49;10.68;;;4.47;;
49730;SDS011;35622;52.008;5.426;2023-07-16T06:27:15;8.50;;;4.32;;
49730;SDS011;35622;52.008;5.426;2023-07-16T06:29:40;11.10;;;5.40;;
49730;SDS011;35622;52.008;5.426;2023-07-16T06:32:06;9.00;;;4.75;;
49730;SDS011;35622;52.008;5.426;2023-07-16T06:34:32;7.30;;;4.78;;
49730;SDS011;35622;52.008;5.426;2023-07-16T06:36:58;8.25;;;4.70;;
49730;SDS011;35622;52.008;5.426;2023-07-16T06:39:23;9.13;;;5.05;;
49730;SDS011;35622;52.008;5.426;2023-07-16T06:41:49;8.93;;;4.90;;
49730;SDS011;35622;52.008;5.426;2023-07-16T06:44:15;10.85;;;5.10;;
49730;SDS011;35622;52.008;5.426;2023-07-16T06:46:40;9.70;;;5.25;;
49730;SDS011;35622;52.008;5.426;2023-07-16T06:49:06;10.48;;;5.50;;
49730;SDS011;35622;52.008;5.426;2023-07-16T06:51:33;11.25;;;5.55;;
49730;SDS011;35622;52.008;5.426;2023-07-16T06:53:59;11.75;;;5.25;;
49730;SDS011;35622;52.008;5.426;2023-07-16T06:56:24;8.38;;;5.43;;
49730;SDS011;35622;52.008;5.426;2023-07-16T06:58:50;7.70;;;4.38;;
49730;SDS011;35622;52.008;5.426;2023-07-16T07:01:16;8.98;;;4.45;;
49730;SDS011;35622;52.008;5.426;2023-07-16T07:04:00;7.22;;;4.65;;
49730;SDS011;35622;52.008;5.426;2023-07-16T07:06:25;8.60;;;4.65;;
49730;SDS011;35622;52.008;5.426;2023-07-16T07:08:51;9.63;;;4.75;;
49730;SDS011;35622;52.008;5.426;2023-07-16T07:11:17;10.27;;;5.63;;
49730;SDS011;35622;52.008;5.426;2023-07-16T07:13:43;7.72;;;4.35;;
49730;SDS011;35622;52.008;5.426;2023-07-16T07:16:08;12.23;;;4.97;;
49730;SDS011;35622;52.008;5.426;2023-07-16T07:18:34;8.15;;;4.70;;
49730;SDS011;35622;52.008;5.426;2023-07-16T07:20:59;9.43;;;5.05;;
49730;SDS011;35622;52.008;5.426;2023-07-16T07:23:25;9.18;;;5.38;;
49730;SDS011;35622;52.008;5.426;2023-07-16T07:25:51;8.48;;;4.63;;
49730;SDS011;35622;52.008;5.426;2023-07-16T07:28:18;9.05;;;4.97;;
49730;SDS011;35622;52.008;5.426;2023-07-16T07:30:44;9.27;;;4.55;;
49730;SDS011;35622;52.008;5.426;2023-07-16T07:33:10;10.52;;;5.00;;
49730;SDS011;35622;52.008;5.426;2023-07-16T07:35:36;8.18;;;5.22;;
49730;SDS011;35622;52.008;5.426;2023-07-16T07:38:02;11.82;;;4.70;;
49730;SDS011;35622;52.008;5.426;2023-07-16T07:40:28;7.93;;;4.90;;
49730;SDS011;35622;52.008;5.426;2023-07-16T07:42:54;9.93;;;6.00;;
49730;SDS011;35622;52.008;5.426;2023-07-16T07:45:21;8.85;;;4.80;;
49730;SDS011;35622;52.008;5.426;2023-07-16T07:47:46;9.02;;;4.75;;
49730;SDS011;35622;52.008;5.426;2023-07-16T07:50:13;8.60;;;5.20;;
49730;SDS011;35622;52.008;5.426;2023-07-16T07:52:39;9.68;;;5.30;;
49730;SDS011;35622;52.008;5.426;2023-07-16T07:55:05;11.02;;;4.95;;
49730;SDS011;35622;52.008;5.426;2023-07-16T07:57:30;8.77;;;4.55;;
49730;SDS011;35622;52.008;5.426;2023-07-16T07:59:56;9.52;;;5.28;;
49730;SDS011;35622;52.008;5.426;2023-07-16T08:02:23;9.52;;;4.90;;
49730;SDS011;35622;52.008;5.426;2023-07-16T08:04:52;9.13;;;4.78;;
49730;SDS011;35622;52.008;5.426;2023-07-16T08:07:18;10.95;;;5.72;;
49730;SDS011;35622;52.008;5.426;2023-07-16T08:09:44;12.25;;;5.10;;
49730;SDS011;35622;52.008;5.426;2023-07-16T08:12:10;10.25;;;5.63;;
49730;SDS011;35622;52.008;5.426;2023-07-16T08:14:36;8.45;;;4.85;;
49730;SDS011;35622;52.008;5.426;2023-07-16T08:17:02;9.20;;;4.93;;
49730;SDS011;35622;52.008;5.426;2023-07-16T08:19:28;10.63;;;5.60;;
49730;SDS011;35622;52.008;5.426;2023-07-16T08:21:54;11.82;;;5.47;;
49730;SDS011;35622;52.008;5.426;2023-07-16T08:24:20;13.52;;;5.93;;
49730;SDS011;35622;52.008;5.426;2023-07-16T08:26:46;12.27;;;5.20;;
49730;SDS011;35622;52.008;5.426;2023-07-16T08:29:11;10.82;;;5.30;;
49730;SDS011;35622;52.008;5.426;2023-07-16T08:31:37;11.50;;;5.20;;
49730;SDS011;35622;52.008;5.426;2023-07-16T08:34:02;13.85;;;6.28;;
49730;SDS011;35622;52.008;5.426;2023-07-16T08:36:28;10.60;;;5.90;;
49730;SDS011;35622;52.008;5.426;2023-07-16T08:38:54;11.27;;;4.65;;
49730;SDS011;35622;52.008;5.426;2023-07-16T08:41:19;10.13;;;5.03;;
49730;SDS011;35622;52.008;5.426;2023-07-16T08:43:46;10.75;;;5.20;;
49730;SDS011;35622;52.008;5.426;2023-07-16T08:46:17;10.63;;;5.30;;
49730;SDS011;35622;52.008;5.426;2023-07-16T08:48:44;11.32;;;5.13;;
49730;SDS011;35622;52.008;5.426;2023-07-16T08:51:10;9.60;;;5.28;;
49730;SDS011;35622;52.008;5.426;2023-07-16T08:53:40;8.90;;;5.38;;
49730;SDS011;35622;52.008;5.426;2023-07-16T08:56:06;12.18;;;5.63;;
49730;SDS011;35622;52.008;5.426;2023-07-16T08:58:32;10.02;;;5.57;;
49730;SDS011;35622;52.008;5.426;2023-07-16T09:00:58;9.85;;;5.60;;
49730;SDS011;35622;52.008;5.426;2023-07-16T09:03:25;14.38;;;5.97;;
49730;SDS011;35622;52.008;5.426;2023-07-16T09:05:51;12.73;;;5.88;;
49730;SDS011;35622;52.008;5.426;2023-07-16T09:08:18;9.50;;;5.32;;
49730;SDS011;35622;52.008;5.426;2023-07-16T09:10:43;10.80;;;5.70;;
49730;SDS011;35622;52.008;5.426;2023-07-16T09:13:09;12.63;;;5.47;;
49730;SDS011;35622;52.008;5.426;2023-07-16T09:15:35;10.70;;;5.70;;
49730;SDS011;35622;52.008;5.426;2023-07-16T09:18:02;13.13;;;5.60;;
49730;SDS011;35622;52.008;5.426;2023-07-16T09:20:28;12.15;;;5.63;;
49730;SDS011;35622;52.008;5.426;2023-07-16T09:22:57;10.73;;;5.35;;
49730;SDS011;35622;52.008;5.426;2023-07-16T09:25:28;10.93;;;5.85;;
49730;SDS011;35622;52.008;5.426;2023-07-16T09:27:54;10.50;;;5.65;;
49730;SDS011;35622;52.008;5.426;2023-07-16T09:30:20;9.73;;;5.05;;
49730;SDS011;35622;52.008;5.426;2023-07-16T09:32:46;9.55;;;5.60;;
49730;SDS011;35622;52.008;5.426;2023-07-16T09:35:13;6.78;;;4.53;;
49730;SDS011;35622;52.008;5.426;2023-07-16T09:37:40;10.00;;;5.30;;
49730;SDS011;35622;52.008;5.426;2023-07-16T09:40:07;9.13;;;4.88;;
49730;SDS011;35622;52.008;5.426;2023-07-16T09:42:43;10.32;;;4.88;;
49730;SDS011;35622;52.008;5.426;2023-07-16T09:45:18;10.65;;;5.03;;
49730;SDS011;35622;52.008;5.426;2023-07-16T09:47:44;9.80;;;5.15;;
49730;SDS011;35622;52.008;5.426;2023-07-16T09:50:10;9.60;;;5.20;;
49730;SDS011;35622;52.008;5.426;2023-07-16T09:52:36;8.50;;;4.95;;
49730;SDS011;35622;52.008;5.426;2023-07-16T09:55:04;8.73;;;4.82;;
49730;SDS011;35622;52.008;5.426;2023-07-16T09:57:34;9.38;;;4.68;;
49730;SDS011;35622;52.008;5.426;2023-07-16T10:00:03;9.93;;;5.07;;
49730;SDS011;35622;52.008;5.426;2023-07-16T10:02:36;7.72;;;4.63;;
49730;SDS011;35622;52.008;5.426;2023-07-16T10:05:15;9.40;;;5.10;;
49730;SDS011;35622;52.008;5.426;2023-07-16T10:07:42;11.35;;;5.60;;
49730;SDS011;35622;52.008;5.426;2023-07-16T10:10:09;9.40;;;5.13;;
49730;SDS011;35622;52.008;5.426;2023-07-16T10:12:36;9.45;;;5.05;;
49730;SDS011;35622;52.008;5.426;2023-07-16T10:15:02;10.55;;;5.22;;
49730;SDS011;35622;52.008;5.426;2023-07-16T10:17:30;10.98;;;5.10;;
49730;SDS011;35622;52.008;5.426;2023-07-16T10:19:57;12.07;;;4.93;;
49730;SDS011;35622;52.008;5.426;2023-07-16T10:22:41;8.18;;;4.53;;
49730;SDS011;35622;52.008;5.426;2023-07-16T10:27:43;9.80;;;4.75;;
49730;SDS011;35622;52.008;5.426;2023-07-16T10:30:12;8.95;;;5.05;;
49730;SDS011;35622;52.008;5.426;2023-07-16T10:32:38;11.60;;;5.35;;
49730;SDS011;35622;52.008;5.426;2023-07-16T10:35:05;9.80;;;5.00;;
49730;SDS011;35622;52.008;5.426;2023-07-16T10:37:31;7.80;;;5.07;;
49730;SDS011;35622;52.008;5.426;2023-07-16T10:39:58;9.73;;;5.45;;
49730;SDS011;35622;52.008;5.426;2023-07-16T10:42:25;9.25;;;5.45;;
49730;SDS011;35622;52.008;5.426;2023-07-16T10:44:53;13.82;;;6.00;;
49730;SDS011;35622;52.008;5.426;2023-07-16T10:47:20;8.68;;;5.22;;
49730;SDS011;35622;52.008;5.426;2023-07-16T10:49:50;9.07;;;5.28;;
49730;SDS011;35622;52.008;5.426;2023-07-16T10:52:22;13.52;;;5.80;;
49730;SDS011;35622;52.008;5.426;2023-07-16T10:54:49;12.15;;;5.32;;
49730;SDS011;35622;52.008;5.426;2023-07-16T10:57:16;9.57;;;4.55;;
49730;SDS011;35622;52.008;5.426;2023-07-16T10:59:42;11.30;;;4.30;;
49730;SDS011;35622;52.008;5.426;2023-07-16T11:02:13;9.18;;;4.82;;
49730;SDS011;35622;52.008;5.426;2023-07-16T11:04:40;11.50;;;4.75;;
49730;SDS011;35622;52.008;5.426;2023-07-16T11:07:10;11.45;;;5.68;;
49730;SDS011;35622;52.008;5.426;2023-07-16T11:09:43;10.57;;;5.28;;
49730;SDS011;35622;52.008;5.426;2023-07-16T11:12:12;9.55;;;5.03;;
49730;SDS011;35622;52.008;5.426;2023-07-16T11:14:41;7.35;;;4.60;;
49730;SDS011;35622;52.008;5.426;2023-07-16T11:17:11;11.25;;;5.70;;
49730;SDS011;35622;52.008;5.426;2023-07-16T11:19:37;10.13;;;4.97;;
49730;SDS011;35622;52.008;5.426;2023-07-16T11:22:03;7.50;;;4.05;;
49730;SDS011;35622;52.008;5.426;2023-07-16T11:24:44;10.77;;;5.30;;
49730;SDS011;35622;52.008;5.426;2023-07-16T11:27:25;10.45;;;4.70;;
49730;SDS011;35622;52.008;5.426;2023-07-16T11:29:55;9.30;;;4.82;;
49730;SDS011;35622;52.008;5.426;2023-07-16T11:32:41;8.95;;;4.75;;
49730;SDS011;35622;52.008;5.426;2023-07-16T11:35:08;11.70;;;4.50;;
49730;SDS011;35622;52.008;5.426;2023-07-16T11:37:36;8.55;;;4.93;;
49730;SDS011;35622;52.008;5.426;2023-07-16T11:42:29;9.77;;;4.53;;
49730;SDS011;35622;52.008;5.426;2023-07-16T11:44:56;9.80;;;5.13;;
49730;SDS011;35622;52.008;5.426;2023-07-16T11:47:22;12.60;;;5.82;;
49730;SDS011;35622;52.008;5.426;2023-07-16T11:49:48;10.43;;;5.50;;
49730;SDS011;35622;52.008;5.426;2023-07-16T11:52:14;11.57;;;5.05;;
49730;SDS011;35622;52.008;5.426;2023-07-16T11:54:43;11.40;;;5.28;;
49730;SDS011;35622;52.008;5.426;2023-07-16T11:57:09;12.35;;;5.30;;
49730;SDS011;35622;52.008;5.426;2023-07-16T11:59:34;9.45;;;5.10;;
49730;SDS011;35622;52.008;5.426;2023-07-16T12:02:00;8.98;;;5.00;;
49730;SDS011;35622;52.008;5.426;2023-07-16T12:04:27;8.20;;;4.55;;
49730;SDS011;35622;52.008;5.426;2023-07-16T12:06:53;7.25;;;4.40;;
49730;SDS011;35622;52.008;5.426;2023-07-16T12:09:19;7.85;;;3.90;;
49730;SDS011;35622;52.008;5.426;2023-07-16T12:11:44;7.32;;;3.33;;
49730;SDS011;35622;52.008;5.426;2023-07-16T12:14:10;6.30;;;3.65;;
49730;SDS011;35622;52.008;5.426;2023-07-16T12:16:37;6.07;;;3.63;;
49730;SDS011;35622;52.008;5.426;2023-07-16T12:19:03;8.52;;;4.32;;
49730;SDS011;35622;52.008;5.426;2023-07-16T12:21:30;6.97;;;4.47;;
49730;SDS011;35622;52.008;5.426;2023-07-16T12:23:55;7.25;;;4.93;;
49730;SDS011;35622;52.008;5.426;2023-07-16T12:26:21;9.98;;;4.40;;
49730;SDS011;35622;52.008;5.426;2023-07-16T12:28:47;7.55;;;4.53;;
49730;SDS011;35622;52.008;5.426;2023-07-16T12:31:13;8.25;;;4.38;;
49730;SDS011;35622;52.008;5.426;2023-07-16T12:33:39;9.70;;;4.07;;
49730;SDS011;35622;52.008;5.426;2023-07-16T12:36:04;5.90;;;3.70;;
49730;SDS011;35622;52.008;5.426;2023-07-16T12:38:30;6.38;;;3.75;;
49730;SDS011;35622;52.008;5.426;2023-07-16T12:40:55;6.72;;;3.40;;
49730;SDS011;35622;52.008;5.426;2023-07-16T12:43:21;5.53;;;3.00;;
49730;SDS011;35622;52.008;5.426;2023-07-16T12:45:46;7.35;;;3.03;;
49730;SDS011;35622;52.008;5.426;2023-07-16T12:48:12;5.47;;;2.88;;
49730;SDS011;35622;52.008;5.426;2023-07-16T12:50:39;5.43;;;2.80;;
49730;SDS011;35622;52.008;5.426;2023-07-16T12:53:05;6.78;;;2.60;;
49730;SDS011;35622;52.008;5.426;2023-07-16T12:55:30;5.32;;;3.10;;
49730;SDS011;35622;52.008;5.426;2023-07-16T12:57:56;5.05;;;2.72;;
49730;SDS011;35622;52.008;5.426;2023-07-16T13:00:22;5.43;;;2.35;;
49730;SDS011;35622;52.008;5.426;2023-07-16T13:02:47;3.88;;;1.95;;
49730;SDS011;35622;52.008;5.426;2023-07-16T13:05:13;5.38;;;2.10;;
49730;SDS011;35622;52.008;5.426;2023-07-16T13:07:38;4.43;;;1.73;;
49730;SDS011;35622;52.008;5.426;2023-07-16T13:10:04;3.75;;;1.60;;
49730;SDS011;35622;52.008;5.426;2023-07-16T13:12:31;6.50;;;2.30;;
49730;SDS011;35622;52.008;5.426;2023-07-16T13:14:57;4.07;;;1.55;;
49730;SDS011;35622;52.008;5.426;2023-07-16T13:17:23;4.38;;;1.92;;
49730;SDS011;35622;52.008;5.426;2023-07-16T13:19:48;3.97;;;2.33;;
49730;SDS011;35622;52.008;5.426;2023-07-16T13:22:14;3.38;;;1.90;;
49730;SDS011;35622;52.008;5.426;2023-07-16T13:24:40;4.40;;;1.98;;
49730;SDS011;35622;52.008;5.426;2023-07-16T13:27:05;5.15;;;2.35;;
49730;SDS011;35622;52.008;5.426;2023-07-16T13:29:31;4.18;;;2.10;;
49730;SDS011;35622;52.008;5.426;2023-07-16T13:31:56;4.90;;;2.08;;
49730;SDS011;35622;52.008;5.426;2023-07-16T13:34:22;5.65;;;2.33;;
49730;SDS011;35622;52.008;5.426;2023-07-16T13:36:47;6.70;;;2.80;;
49730;SDS011;35622;52.008;5.426;2023-07-16T13:39:13;6.85;;;3.13;;
49730;SDS011;35622;52.008;5.426;2023-07-16T13:41:39;5.45;;;3.35;;
49730;SDS011;35622;52.008;5.426;2023-07-16T13:44:04;6.13;;;3.00;;
49730;SDS011;35622;52.008;5.426;2023-07-16T13:46:30;5.95;;;3.58;;
49730;SDS011;35622;52.008;5.426;2023-07-16T13:48:56;7.93;;;3.70;;
49730;SDS011;35622;52.008;5.426;2023-07-16T13:51:22;7.85;;;3.28;;
49730;SDS011;35622;52.008;5.426;2023-07-16T13:53:47;4.28;;;2.75;;
49730;SDS011;35622;52.008;5.426;2023-07-16T13:56:13;4.97;;;2.42;;
49730;SDS011;35622;52.008;5.426;2023-07-16T13:58:39;4.97;;;2.28;;
49730;SDS011;35622;52.008;5.426;2023-07-16T14:01:04;6.05;;;1.92;;
49730;SDS011;35622;52.008;5.426;2023-07-16T14:03:30;5.47;;;1.80;;
49730;SDS011;35622;52.008;5.426;2023-07-16T14:05:56;4.15;;;1.55;;
49730;SDS011;35622;52.008;5.426;2023-07-16T14:08:21;2.75;;;1.48;;
49730;SDS011;35622;52.008;5.426;2023-07-16T14:10:48;4.15;;;1.65;;
49730;SDS011;35622;52.008;5.426;2023-07-16T14:13:13;4.75;;;1.42;;
49730;SDS011;35622;52.008;5.426;2023-07-16T14:15:40;6.30;;;1.55;;
49730;SDS011;35622;52.008;5.426;2023-07-16T14:18:06;3.17;;;1.08;;
49730;SDS011;35622;52.008;5.426;2023-07-16T14:20:32;4.85;;;1.45;;
49730;SDS011;35622;52.008;5.426;2023-07-16T14:22:57;2.88;;;1.20;;
49730;SDS011;35622;52.008;5.426;2023-07-16T14:25:32;2.88;;;1.15;;
49730;SDS011;35622;52.008;5.426;2023-07-16T14:28:00;2.72;;;1.15;;
49730;SDS011;35622;52.008;5.426;2023-07-16T14:30:25;8.30;;;1.63;;
49730;SDS011;35622;52.008;5.426;2023-07-16T14:32:51;3.28;;;1.23;;
49730;SDS011;35622;52.008;5.426;2023-07-16T14:35:16;2.85;;;1.30;;
49730;SDS011;35622;52.008;5.426;2023-07-16T14:37:42;4.10;;;1.77;;
49730;SDS011;35622;52.008;5.426;2023-07-16T14:40:07;3.08;;;1.20;;
49730;SDS011;35622;52.008;5.426;2023-07-16T14:42:34;3.20;;;1.30;;
49730;SDS011;35622;52.008;5.426;2023-07-16T14:44:59;5.07;;;1.40;;
49730;SDS011;35622;52.008;5.426;2023-07-16T14:47:25;2.75;;;1.33;;
49730;SDS011;35622;52.008;5.426;2023-07-16T14:49:51;5.93;;;1.65;;
49730;SDS011;35622;52.008;5.426;2023-07-16T14:52:18;4.32;;;1.30;;
49730;SDS011;35622;52.008;5.426;2023-07-16T14:54:44;4.13;;;1.40;;